LLPO weather

Poriya Medical Center
Northern District, Israel

Public forecast

Using degrees Celsius for public forecast. Weather courtesy of forecast.io.

METAR (pilot weather report)

Closest report is Ben Ya'akov Airport, 13.7 nm (25.4 km) N. Retrieved 2019/08/23 04:50 UTC (53 minutes ago):

LLIB 230450Z VRB02KT 9000 FEW020 26/20 Q1009

TAF (pilot weather forecast)

Closest forecast is Ben Ya'akov Airport, 13.7 nm (25.4 km) N. Retrieved 2019/08/23 03:30 UTC (2 hours ago):

TAF LLIB 230328Z 2303/2324 24004KT 8000 FEW018 BECMG 2306/2308 15006KT CAVOK BECMG 2311/2313 33012KT BECMG 2320/2322 VRB03KT 9999 FEW015 TX36/2312Z TN20/2303Z